Time;durP1;ratioP1;P1;durP2;ratioP2;P2;SDS_P1;SDS_P2;PMS_P1;PMS_P2;Temp;Humidity;BMP_temperature;BMP_pressure;BME280_temperature;BME280_humidity;BME280_pressure;Samples;Min_cycle;Max_cycle;Signal;HPM_P1;HPM_P2
2021/04/04 00:00:09;;;;;;;;;;;5.20;62.10;;;;;;5006779;28;20191;-68
2021/04/04 00:02:35;;;;;;;10.23;3.80;;;5.10;63.10;;;;;;5006233;28;19952;-67
2021/04/04 00:05:00;;;;;;;;;;;5.00;62.00;;;;;;5006748;28;20629;-68
2021/04/04 00:07:26;;;;;;;15.38;6.53;;;5.10;61.30;;;;;;5005686;28;20279;-68
2021/04/04 00:09:52;;;;;;;;;;;5.00;62.30;;;;;;5006573;28;20104;-67
2021/04/04 00:12:17;;;;;;;15.27;6.05;;;4.90;64.00;;;;;;5005930;28;19915;-68
2021/04/04 00:14:43;;;;;;;10.88;4.70;;;4.90;64.90;;;;;;5006284;28;20034;-67
2021/04/04 00:17:09;;;;;;;;;;;4.80;64.90;;;;;;5006303;28;20165;-68
2021/04/04 00:19:34;;;;;;;11.38;4.75;;;4.80;64.60;;;;;;5005923;28;19925;-68
2021/04/04 00:22:00;;;;;;;;;;;4.70;65.10;;;;;;5006196;28;20029;-68
2021/04/04 00:24:26;;;;;;;10.70;4.50;;;4.70;65.60;;;;;;5009731;28;19925;-68
2021/04/04 00:26:51;;;;;;;;;;;4.70;65.60;;;;;;5009996;28;20659;-68
2021/04/04 00:29:17;;;;;;;15.30;6.45;;;4.60;65.60;;;;;;5009524;28;19914;-68
2021/04/04 00:31:43;;;;;;;;;;;4.60;66.70;;;;;;5010062;28;20060;-68
2021/04/04 00:34:08;;;;;;;4.97;2.47;;;4.50;66.60;;;;;;5009789;28;19909;-69
2021/04/04 00:36:34;;;;;;;;;;;4.70;65.10;;;;;;5009634;28;20025;-68
2021/04/04 00:39:00;;;;;;;11.73;4.38;;;4.80;63.00;;;;;;5009668;28;19913;-67
2021/04/04 00:41:26;;;;;;;;;;;4.80;63.90;;;;;;5009124;28;20034;-68
2021/04/04 00:43:51;;;;;;;12.63;4.85;;;4.80;64.10;;;;;;5009639;28;19917;-68
2021/04/04 00:46:17;;;;;;;;;;;4.80;64.90;;;;;;5009305;28;20023;-68
2021/04/04 00:48:42;;;;;;;5.53;2.50;;;4.80;65.60;;;;;;5009459;28;19909;-68
2021/04/04 00:51:08;;;;;;;;;;;4.80;66.00;;;;;;5009967;28;20034;-67
2021/04/04 00:53:34;;;;;;;4.88;2.15;;;4.70;66.80;;;;;;5008803;28;19955;-68
2021/04/04 00:55:59;;;;;;;;;;;4.80;66.00;;;;;;5009269;28;20026;-68
2021/04/04 00:58:25;;;;;;;4.28;1.88;;;4.80;66.30;;;;;;5008916;28;20020;-68
2021/04/04 01:00:51;;;;;;;3.75;2.20;;;4.70;65.60;;;;;;5009276;28;20123;-67
2021/04/04 01:03:17;;;;;;;;;;;4.60;67.20;;;;;;5009439;28;20050;-68
2021/04/04 01:05:46;;;;;;;5.30;2.40;;;4.60;67.10;;;;;;5008934;28;19913;-68
2021/04/04 01:08:12;;;;;;;5.43;2.25;;;4.60;66.60;;;;;;5008608;28;20046;-68
2021/04/04 01:10:39;;;;;;;;;;;4.60;66.20;;;;;;5008681;28;20120;-68
2021/04/04 01:13:41;;;;;;;4.65;2.08;;;4.50;66.30;;;;;;5009102;28;19928;-68
2021/04/04 01:16:21;;;;;;;5.65;1.90;;;4.50;65.80;;;;;;5008357;28;20109;-68
2021/04/04 01:19:15;;;;;;;3.80;1.48;;;4.60;65.00;;;;;;5008309;28;20046;-68
2021/04/04 01:21:46;;;;;;;5.00;1.90;;;4.80;64.90;;;;;;5008441;28;20033;-68
2021/04/04 01:24:49;;;;;;;4.97;1.92;;;4.90;64.40;;;;;;5008660;28;20041;-66
2021/04/04 01:27:23;;;;;;;4.13;1.67;;;5.20;62.60;;;;;;5007995;28;20052;-67
2021/04/04 01:29:50;;;;;;;5.93;1.60;;;5.10;63.20;;;;;;5008865;28;20026;-68
2021/04/04 01:32:15;;;;;;;5.65;1.77;;;5.00;64.80;;;;;;5008503;28;20486;-68
2021/04/04 01:34:42;;;;;;;;;;;5.00;63.40;;;;;;5008112;28;20032;-67
2021/04/04 01:37:11;;;;;;;4.47;1.95;;;5.00;63.40;;;;;;5008492;28;19909;-68
2021/04/04 01:39:47;;;;;;;3.90;1.73;;;4.90;64.10;;;;;;5008541;28;20426;-68
2021/04/04 01:42:15;;;;;;;7.40;1.90;;;4.80;65.20;;;;;;5008097;28;20029;-68
2021/04/04 01:44:44;;;;;;;3.70;1.55;;;4.80;64.80;;;;;;5006637;28;20561;-68
2021/04/04 01:47:11;;;;;;;4.97;1.50;;;4.90;64.00;;;;;;5008301;28;20022;-69
2021/04/04 01:49:40;;;;;;;4.43;1.55;;;4.80;64.70;;;;;;5007721;28;20518;-68
2021/04/04 01:52:06;;;;;;;2.55;1.17;;;4.70;64.90;;;;;;5008258;28;20018;-68
2021/04/04 01:54:32;;;;;;;;;;;4.70;64.30;;;;;;5008271;28;20030;-67
2021/04/04 01:56:58;;;;;;;2.90;1.35;;;4.70;65.10;;;;;;5007877;28;19910;-68
2021/04/04 01:59:24;;;;;;;;;;;4.60;65.90;;;;;;5008528;28;20123;-67
2021/04/04 02:01:50;;;;;;;4.53;1.45;;;4.50;66.20;;;;;;5008022;28;19960;-68
2021/04/04 02:04:16;;;;;;;;;;;4.60;64.50;;;;;;5007923;28;20053;-67
2021/04/04 02:06:43;;;;;;;3.13;1.33;;;4.60;63.50;;;;;;5007880;28;20095;-67
2021/04/04 02:09:15;;;;;;;3.53;1.05;;;4.70;62.90;;;;;;5007805;28;20513;-68
2021/04/04 02:11:42;;;;;;;5.30;1.73;;;4.70;63.40;;;;;;5007481;28;20033;-68
2021/04/04 02:14:13;;;;;;;3.65;1.60;;;4.80;64.50;;;;;;5007818;28;20559;-68
2021/04/04 02:16:51;;;;;;;5.00;1.50;;;4.70;62.70;;;;;;5007763;28;20026;-68
2021/04/04 02:19:27;;;;;;;4.95;1.63;;;4.70;64.20;;;;;;5006181;28;20049;-68
2021/04/04 02:21:56;;;;;;;4.22;1.50;;;4.70;63.60;;;;;;5007301;28;20053;-67
2021/04/04 02:24:24;;;;;;;5.90;1.52;;;4.80;62.80;;;;;;5007566;28;20128;-67
2021/04/04 02:26:51;;;;;;;2.95;1.42;;;4.80;62.30;;;;;;5006884;28;20068;-68
2021/04/04 02:29:17;;;;;;;4.22;1.55;;;4.80;62.30;;;;;;5007450;28;20801;-68
2021/04/04 02:31:45;;;;;;;;;;;4.80;60.80;;;;;;5007774;28;20538;-68
2021/04/04 02:34:15;;;;;;;5.13;1.75;;;4.80;61.70;;;;;;5007351;28;20366;-68
2021/04/04 02:36:42;;;;;;;3.58;1.45;;;4.70;62.20;;;;;;5006938;28;20093;-68
2021/04/04 02:39:16;;;;;;;3.92;1.50;;;4.60;63.30;;;;;;5007509;28;20041;-68
2021/04/04 02:41:43;;;;;;;3.38;1.48;;;4.60;62.70;;;;;;5007050;28;20402;-68
2021/04/04 02:44:10;;;;;;;4.70;1.60;;;4.80;59.80;;;;;;5006745;28;20524;-68
2021/04/04 02:46:38;;;;;;;4.32;1.55;;;4.80;60.30;;;;;;5006312;28;20017;-68
2021/04/04 02:49:07;;;;;;;2.67;1.15;;;4.80;60.10;;;;;;5007348;28;20656;-68
2021/04/04 02:51:39;;;;;;;5.68;1.88;;;4.80;60.00;;;;;;5006589;28;20034;-68
2021/04/04 02:54:07;;;;;;;8.45;1.15;;;4.90;60.70;;;;;;5006965;28;20022;-68
2021/04/04 02:56:38;;;;;;;2.17;1.13;;;4.80;60.90;;;;;;5006573;28;20029;-68
2021/04/04 02:59:06;;;;;;;4.10;1.48;;;4.70;62.10;;;;;;5006857;28;20112;-67
2021/04/04 03:01:34;;;;;;;3.17;1.73;;;4.60;62.60;;;;;;5006813;28;20029;-68
2021/04/04 03:04:03;;;;;;;5.35;1.52;;;4.60;60.90;;;;;;5006933;28;20030;-68
2021/04/04 03:06:29;;;;;;;4.15;1.90;;;4.70;60.50;;;;;;5006349;28;20129;-68
2021/04/04 03:08:56;;;;;;;3.67;1.77;;;4.70;60.90;;;;;;5006399;28;20105;-68
2021/04/04 03:11:22;;;;;;;6.10;1.67;;;4.60;61.70;;;;;;5006336;28;20030;-68
2021/04/04 03:13:52;;;;;;;;;;;4.60;61.80;;;;;;5006981;28;20026;-68
2021/04/04 03:16:22;;;;;;;3.80;1.58;;;4.60;62.00;;;;;;5006795;28;19920;-68
2021/04/04 03:18:49;;;;;;;3.53;1.15;;;4.50;62.40;;;;;;5006518;28;20050;-68
2021/04/04 03:21:17;;;;;;;4.97;1.50;;;4.50;63.20;;;;;;5006401;28;20117;-68
2021/04/04 03:23:44;;;;;;;2.45;1.20;;;4.40;63.80;;;;;;5006419;28;20026;-68
2021/04/04 03:26:11;;;;;;;3.00;1.27;;;4.30;63.50;;;;;;5005917;28;20056;-67
2021/04/04 03:28:39;;;;;;;3.60;1.25;;;4.20;63.80;;;;;;5006686;28;20536;-68
2021/04/04 03:31:05;;;;;;;3.40;1.30;;;4.20;64.50;;;;;;5006366;28;20796;-68
2021/04/04 03:33:31;;;;;;;;;;;4.20;64.30;;;;;;5007025;28;20094;-67
2021/04/04 03:35:58;;;;;;;3.58;1.33;;;4.20;63.40;;;;;;5006108;28;20395;-68
2021/04/04 03:38:26;;;;;;;4.13;1.75;;;4.20;63.40;;;;;;5006622;28;20072;-68
2021/04/04 03:40:53;;;;;;;4.25;1.38;;;4.20;63.90;;;;;;5006075;28;20022;-68
2021/04/04 03:43:26;;;;;;;6.57;2.03;;;4.20;63.50;;;;;;5006337;28;20038;-69
2021/04/04 03:46:01;;;;;;;8.32;4.15;;;4.20;62.80;;;;;;5006718;28;20029;-68
2021/04/04 03:48:29;;;;;;;7.40;2.75;;;4.50;61.30;;;;;;5006274;28;20462;-68
2021/04/04 03:50:56;;;;;;;10.98;3.00;;;4.40;61.40;;;;;;5006726;28;20038;-68
2021/04/04 03:53:24;;;;;;;4.97;2.30;;;4.40;61.50;;;;;;5005999;28;20037;-68
2021/04/04 03:56:01;;;;;;;5.10;2.28;;;4.20;63.60;;;;;;5006075;28;20292;-68
2021/04/04 03:58:27;;;;;;;;;;;4.10;64.20;;;;;;5008860;28;20030;-68
2021/04/04 04:00:55;;;;;;;7.10;1.70;;;4.00;64.60;;;;;;5010089;28;19909;-68
2021/04/04 04:03:22;;;;;;;3.33;1.27;;;3.90;65.30;;;;;;5010023;28;20030;-68
2021/04/04 04:05:49;;;;;;;5.25;2.53;;;3.80;65.80;;;;;;5010289;28;20065;-67
2021/04/04 04:08:16;;;;;;;3.95;2.08;;;3.80;66.50;;;;;;5009638;28;20108;-68
2021/04/04 04:10:43;;;;;;;6.60;2.58;;;3.80;66.50;;;;;;5009301;28;20048;-68
2021/04/04 04:13:10;;;;;;;6.25;2.30;;;3.70;66.10;;;;;;5010114;28;20045;-68
2021/04/04 04:15:35;;;;;;;5.45;2.15;;;3.70;66.30;;;;;;5010064;28;20030;-67
2021/04/04 04:18:02;;;;;;;;;;;3.70;66.20;;;;;;5009989;28;20449;-68
2021/04/04 04:20:28;;;;;;;8.20;2.70;;;3.70;66.60;;;;;;5009725;28;20382;-68
2021/04/04 04:22:58;;;;;;;7.80;2.88;;;3.70;67.80;;;;;;5009723;28;20030;-68
2021/04/04 04:25:26;;;;;;;4.03;1.92;;;3.70;67.40;;;;;;5009265;28;20077;-68
2021/04/04 04:27:53;;;;;;;3.42;2.10;;;3.70;67.20;;;;;;5009867;28;20137;-68
2021/04/04 04:30:19;;;;;;;5.05;1.95;;;3.60;67.80;;;;;;5009427;28;20076;-69
2021/04/04 04:32:48;;;;;;;3.47;1.90;;;3.70;67.70;;;;;;5009893;28;20041;-68
2021/04/04 04:35:16;;;;;;;5.20;2.15;;;3.70;67.10;;;;;;5007179;28;20371;-67
2021/04/04 04:37:42;;;;;;;5.43;1.90;;;3.90;65.60;;;;;;5009061;28;20683;-69
2021/04/04 04:40:10;;;;;;;5.57;2.83;;;3.80;66.00;;;;;;5008703;28;20034;-68
2021/04/04 04:42:48;;;;;;;5.63;2.10;;;3.80;66.00;;;;;;5009083;28;20030;-68
2021/04/04 04:45:35;;;;;;;4.25;2.35;;;3.90;66.10;;;;;;5009297;28;20073;-67
2021/04/04 04:48:01;;;;;;;4.40;1.85;;;3.90;65.30;;;;;;5008773;28;20026;-67
2021/04/04 04:50:28;;;;;;;4.72;2.15;;;4.00;64.20;;;;;;5009609;28;20030;-67
2021/04/04 04:52:57;;;;;;;6.78;2.33;;;4.20;63.20;;;;;;5008631;28;20033;-67
2021/04/04 04:55:24;;;;;;;5.47;2.03;;;4.40;62.30;;;;;;5008967;28;20759;-67
2021/04/04 04:57:49;;;;;;;4.30;1.67;;;4.30;61.80;;;;;;5009034;28;20033;-66
2021/04/04 05:00:16;;;;;;;;;;;4.30;62.20;;;;;;5009610;28;20030;-66
2021/04/04 05:02:42;;;;;;;6.40;2.00;;;4.40;61.60;;;;;;5007880;28;20575;-67
2021/04/04 05:05:12;;;;;;;5.00;1.75;;;4.50;61.00;;;;;;5007832;28;20124;-67
2021/04/04 05:07:39;;;;;;;5.57;2.38;;;4.60;60.90;;;;;;5008481;28;20124;-67
2021/04/04 05:10:10;;;;;;;4.25;1.85;;;5.20;60.20;;;;;;5004919;28;20034;-67
2021/04/04 05:12:42;;;;;;;4.97;2.00;;;5.90;55.90;;;;;;5008753;28;20032;-67
2021/04/04 05:15:09;;;;;;;2.55;1.13;;;6.10;55.40;;;;;;5007095;28;20113;-67
2021/04/04 05:17:36;;;;;;;4.80;1.88;;;6.10;56.00;;;;;;5008635;28;20625;-67
2021/04/04 05:20:04;;;;;;;4.20;1.90;;;6.10;56.30;;;;;;5008753;28;20049;-66
2021/04/04 05:22:30;;;;;;;5.25;1.77;;;6.20;56.10;;;;;;5008477;28;20322;-66
2021/04/04 05:24:56;;;;;;;;;;;6.20;56.50;;;;;;5007586;28;20631;-66
2021/04/04 05:27:21;;;;;;;3.67;1.58;;;6.30;55.90;;;;;;5023414;28;19913;-66
2021/04/04 05:29:48;;;;;;;;;;;6.70;55.30;;;;;;5009171;28;20394;-66
2021/04/04 05:32:13;;;;;;;5.35;1.90;;;7.50;53.20;;;;;;5008695;28;19913;-68
2021/04/04 05:34:39;;;;;;;;;;;8.30;51.70;;;;;;5008556;28;20875;-66
2021/04/04 05:37:06;;;;;;;4.13;1.95;;;9.10;48.60;;;;;;5008182;28;19913;-68
2021/04/04 05:39:38;;;;;;;4.68;1.65;;;9.70;47.70;;;;;;5007740;28;20033;-68
2021/04/04 05:42:06;;;;;;;4.07;1.90;;;10.20;46.10;;;;;;5008252;28;20036;-68
2021/04/04 05:45:00;;;;;;;3.83;1.90;;;10.70;44.90;;;;;;5007957;28;20037;-67
2021/04/04 05:47:47;;;;;;;3.88;1.63;;;11.20;43.10;;;;;;5023715;28;20029;-67
2021/04/04 05:50:22;;;;;;;2.83;1.23;;;11.70;42.00;;;;;;5026513;28;20044;-68
2021/04/04 05:53:13;;;;;;;2.85;1.40;;;12.20;40.90;;;;;;5027538;28;20034;-68
2021/04/04 05:55:51;;;;;;;3.47;1.40;;;12.30;39.20;;;;;;5027618;28;20032;-68
2021/04/04 05:58:22;;;;;;;3.00;1.63;;;12.40;38.70;;;;;;5026793;28;20494;-67
2021/04/04 06:00:57;;;;;;;5.43;1.80;;;12.60;39.70;;;;;;5027415;28;20043;-68
2021/04/04 06:03:44;;;;;;;3.03;1.25;;;12.90;38.90;;;;;;5027577;28;20524;-68
2021/04/04 06:06:33;;;;;;;4.38;1.45;;;13.10;36.00;;;;;;5027534;28;20043;-68
2021/04/04 06:09:34;;;;;;;2.80;1.13;;;13.30;36.50;;;;;;5027104;28;20033;-68
2021/04/04 06:12:26;;;;;;;3.33;1.40;;;13.60;33.60;;;;;;5027794;28;20040;-67
2021/04/04 06:15:06;;;;;;;2.58;1.15;;;12.90;32.60;;;;;;5027648;28;20439;-67
2021/04/04 06:17:56;;;;;;;4.22;1.95;;;12.80;35.70;;;;;;5027056;28;20048;-68
2021/04/04 06:20:47;;;;;;;4.47;2.30;;;13.60;35.00;;;;;;5016132;28;20061;-68
2021/04/04 06:23:35;;;;;;;4.25;2.00;;;14.10;33.50;;;;;;5026861;28;20059;-68
2021/04/04 06:26:15;;;;;;;3.58;1.52;;;14.20;31.60;;;;;;5027400;28;20120;-68
2021/04/04 06:29:00;;;;;;;2.85;1.48;;;14.50;31.50;;;;;;5027347;28;20073;-68
2021/04/04 06:32:02;;;;;;;5.80;2.08;;;14.70;31.30;;;;;;5027129;28;20056;-69
2021/04/04 06:34:38;;;;;;;2.83;1.65;;;14.80;30.40;;;;;;5027232;28;20044;-68
2021/04/04 06:37:25;;;;;;;3.80;1.50;;;15.10;30.40;;;;;;5026802;28;20208;-68
2021/04/04 06:40:30;;;;;;;4.45;1.42;;;15.40;30.50;;;;;;5025573;28;20074;-67
2021/04/04 06:43:16;;;;;;;4.45;1.60;;;16.30;27.90;;;;;;5023100;28;20035;-67
2021/04/04 06:45:51;;;;;;;3.42;1.73;;;15.50;28.50;;;;;;5026680;28;20148;-68
2021/04/04 06:48:43;;;;;;;3.65;1.27;;;15.00;30.70;;;;;;5026461;28;20025;-68
2021/04/04 06:51:21;;;;;;;4.13;2.20;;;15.50;31.70;;;;;;5027054;28;20029;-68
2021/04/04 06:54:18;;;;;;;3.67;1.40;;;15.90;30.50;;;;;;5026495;28;20628;-68
2021/04/04 06:57:11;;;;;;;4.43;1.98;;;16.40;29.30;;;;;;5026735;28;20052;-68
2021/04/04 07:00:03;;;;;;;4.68;1.63;;;16.90;27.90;;;;;;5026579;28;20132;-68
2021/04/04 07:02:37;;;;;;;2.67;1.38;;;17.30;27.10;;;;;;5026481;28;20060;-67
2021/04/04 07:05:10;;;;;;;3.95;2.35;;;16.90;27.40;;;;;;5026537;28;20041;-68
2021/04/04 07:07:38;;;;;;;3.58;2.03;;;16.80;26.80;;;;;;5025730;28;20108;-68
2021/04/04 07:10:32;;;;;;;5.38;2.88;;;16.20;27.70;;;;;;5026064;28;20042;-67
2021/04/04 07:13:16;;;;;;;6.20;2.25;;;16.20;29.00;;;;;;5026636;28;20041;-68
2021/04/04 07:15:48;;;;;;;3.78;1.95;;;16.10;28.30;;;;;;5026678;28;20052;-69
2021/04/04 07:18:33;;;;;;;4.28;1.67;;;16.10;28.70;;;;;;5025824;28;20465;-68
2021/04/04 07:21:13;;;;;;;3.58;1.60;;;16.50;27.50;;;;;;5026408;28;20037;-69
2021/04/04 07:24:06;;;;;;;3.30;1.48;;;16.80;26.90;;;;;;5025353;28;20055;-68
2021/04/04 07:26:58;;;;;;;4.80;1.75;;;16.80;27.90;;;;;;5026526;28;20036;-67
2021/04/04 07:29:51;;;;;;;3.22;1.40;;;17.10;26.90;;;;;;5017614;28;20430;-67
2021/04/04 07:32:47;;;;;;;3.50;1.42;;;17.90;24.80;;;;;;5025684;28;20091;-68
2021/04/04 07:35:18;;;;;;;4.60;1.75;;;17.20;26.00;;;;;;5026194;28;20025;-68
2021/04/04 07:37:52;;;;;;;3.28;1.52;;;16.80;28.60;;;;;;5025218;28;20029;-68
2021/04/04 07:40:22;;;;;;;4.82;1.70;;;17.00;28.10;;;;;;5026197;28;20022;-66
2021/04/04 07:43:03;;;;;;;5.97;2.60;;;18.00;27.50;;;;;;5025815;28;20022;-67
2021/04/04 07:45:48;;;;;;;4.38;1.80;;;18.20;26.30;;;;;;5024128;28;20053;-67
2021/04/04 07:48:28;;;;;;;4.40;1.70;;;19.40;24.80;;;;;;5025943;28;20039;-67
2021/04/04 07:51:02;;;;;;;5.20;1.95;;;19.40;24.80;;;;;;5026064;28;20032;-69
2021/04/04 07:53:54;;;;;;;4.63;1.58;;;19.90;24.60;;;;;;5025290;28;20037;-69
2021/04/04 07:56:49;;;;;;;7.38;2.55;;;20.20;23.80;;;;;;5026014;28;20121;-67
2021/04/04 07:59:30;;;;;;;4.43;1.70;;;20.60;23.40;;;;;;5025745;28;20105;-67
2021/04/04 08:02:17;;;;;;;4.80;2.40;;;21.40;22.90;;;;;;5025566;28;20048;-67
2021/04/04 08:04:48;;;;;;;4.38;1.90;;;21.50;22.70;;;;;;5025548;28;20030;-68
2021/04/04 08:07:22;;;;;;;3.17;1.40;;;21.00;22.00;;;;;;5025115;28;20437;-67
2021/04/04 08:10:04;;;;;;;2.78;1.20;;;20.90;23.50;;;;;;5025800;28;20038;-67
2021/04/04 08:12:30;;;;;;;2.65;1.30;;;21.60;23.40;;;;;;5025650;28;20029;-67
2021/04/04 08:15:07;;;;;;;5.28;1.85;;;22.20;22.90;;;;;;5026144;28;20034;-67
2021/04/04 08:17:36;;;;;;;3.10;1.38;;;22.40;21.50;;;;;;5024369;28;20048;-68
2021/04/04 08:20:13;;;;;;;1.70;0.90;;;20.50;20.80;;;;;;5024588;28;20029;-67
2021/04/04 08:22:43;;;;;;;3.42;1.17;;;18.70;23.00;;;;;;5025527;28;20410;-67
2021/04/04 08:25:16;;;;;;;2.42;1.10;;;16.90;24.30;;;;;;5025897;28;20041;-67
2021/04/04 08:27:49;;;;;;;3.25;1.25;;;15.40;26.80;;;;;;5025532;28;20486;-67
2021/04/04 08:30:17;;;;;;;3.78;1.20;;;14.60;28.20;;;;;;5025689;28;20482;-67
2021/04/04 08:32:52;;;;;;;4.55;2.85;;;14.20;28.90;;;;;;5024357;28;20017;-67
2021/04/04 08:35:25;;;;;;;3.35;1.70;;;13.80;29.20;;;;;;5024235;28;20112;-68
2021/04/04 08:37:55;;;;;;;7.50;5.20;;;13.50;29.90;;;;;;5025090;28;20039;-67
2021/04/04 08:40:23;;;;;;;5.43;2.33;;;13.30;30.80;;;;;;5025491;28;20484;-67
2021/04/04 08:42:51;;;;;;;3.33;1.40;;;13.40;30.30;;;;;;5025329;28;20029;-67
2021/04/04 08:45:34;;;;;;;3.28;1.10;;;14.00;30.00;;;;;;5028703;28;20048;-67
2021/04/04 08:48:01;;;;;;;2.97;1.30;;;13.80;29.80;;;;;;5028640;28;20033;-67
2021/04/04 08:50:29;;;;;;;5.35;2.08;;;13.20;32.20;;;;;;5028951;28;20025;-67
2021/04/04 08:53:13;;;;;;;2.50;0.90;;;13.70;33.80;;;;;;5028787;28;20021;-68
2021/04/04 08:55:42;;;;;;;3.58;1.42;;;14.00;29.30;;;;;;5028665;28;20039;-67
2021/04/04 08:58:12;;;;;;;5.72;1.88;;;14.30;31.80;;;;;;5028986;28;20023;-67
2021/04/04 09:00:39;;;;;;;3.00;1.23;;;14.80;32.20;;;;;;5028800;28;20132;-67
2021/04/04 09:03:16;;;;;;;4.07;1.90;;;15.60;27.80;;;;;;5028841;28;20037;-67
2021/04/04 09:05:42;;;;;;;8.80;3.97;;;15.80;29.70;;;;;;5028367;28;20565;-68
2021/04/04 09:08:12;;;;;;;4.28;1.48;;;15.20;28.90;;;;;;5028355;28;20052;-67
2021/04/04 09:10:39;;;;;;;3.17;1.27;;;14.70;28.90;;;;;;5028758;28;20402;-66
2021/04/04 09:13:09;;;;;;;4.57;1.65;;;13.90;29.10;;;;;;5028947;28;20051;-67
2021/04/04 09:15:52;;;;;;;4.68;1.58;;;13.10;30.10;;;;;;5028198;28;20033;-67
2021/04/04 09:18:18;;;;;;;4.07;2.00;;;12.40;31.60;;;;;;5027798;28;20133;-66
2021/04/04 09:20:45;;;;;;;;;;;12.00;32.40;;;;;;5028174;28;20096;-68
2021/04/04 09:23:13;;;;;;;2.85;1.35;;;11.50;33.40;;;;;;5026931;28;20317;-68
2021/04/04 09:25:55;;;;;;;2.95;1.00;;;11.10;33.90;;;;;;5028354;28;20042;-67
2021/04/04 09:28:25;;;;;;;4.03;1.60;;;10.90;35.70;;;;;;5028446;28;21034;-67
2021/04/04 09:30:51;;;;;;;3.50;1.42;;;11.20;33.40;;;;;;5028519;28;20072;-66
2021/04/04 09:33:18;;;;;;;;;;;11.00;34.00;;;;;;5028769;28;20061;-67
2021/04/04 09:35:50;;;;;;;3.25;1.60;;;10.70;34.90;;;;;;5027779;28;20103;-68
2021/04/04 09:38:17;;;;;;;2.47;1.33;;;10.60;36.30;;;;;;5027943;28;20037;-67
2021/04/04 09:40:44;;;;;;;4.82;1.88;;;10.50;37.30;;;;;;5026925;28;20025;-67
2021/04/04 09:43:14;;;;;;;5.95;1.73;;;11.20;36.40;;;;;;5027614;28;20057;-68
2021/04/04 09:45:41;;;;;;;3.80;1.48;;;12.40;34.90;;;;;;5026838;28;20034;-69
2021/04/04 09:48:16;;;;;;;16.35;9.90;;;13.60;33.50;;;;;;5027302;28;20044;-68
2021/04/04 09:50:42;;;;;;;5.07;3.35;;;15.30;29.00;;;;;;5027270;28;20675;-68
2021/04/04 09:53:08;;;;;;;3.28;1.13;;;16.20;28.50;;;;;;5028016;28;20052;-69
2021/04/04 09:55:33;;;;;;;2.92;0.93;;;16.80;27.30;;;;;;5026957;28;20207;-69
2021/04/04 09:58:01;;;;;;;2.85;0.80;;;17.40;25.40;;;;;;5022027;28;20120;-68
2021/04/04 10:00:30;;;;;;;2.55;1.30;;;16.90;25.40;;;;;;5026380;28;20375;-69
2021/04/04 10:02:58;;;;;;;2.78;1.02;;;16.00;26.40;;;;;;5026049;28;20108;-69
2021/04/04 10:05:37;;;;;;;2.75;1.30;;;15.20;27.80;;;;;;5025838;28;20112;-68
2021/04/04 10:08:17;;;;;;;3.05;1.20;;;14.60;27.20;;;;;;5027478;28;20487;-66
2021/04/04 10:10:50;;;;;;;4.88;0.80;;;13.90;29.50;;;;;;5027649;28;20021;-66
2021/04/04 10:13:18;;;;;;;3.92;1.00;;;14.00;27.70;;;;;;5027362;28;20420;-67
2021/04/04 10:15:49;;;;;;;3.42;0.88;;;13.40;27.70;;;;;;5027454;28;20048;-66
2021/04/04 10:18:16;;;;;;;2.60;0.80;;;12.90;29.40;;;;;;5027210;28;20053;-66
2021/04/04 10:20:47;;;;;;;3.15;1.10;;;12.70;29.80;;;;;;5025609;28;20486;-65
2021/04/04 10:23:15;;;;;;;5.60;0.90;;;12.40;30.50;;;;;;5027075;28;20030;-68
2021/04/04 10:25:59;;;;;;;4.03;1.20;;;12.40;30.50;;;;;;5027024;28;20506;-69
2021/04/04 10:28:39;;;;;;;2.45;1.23;;;12.50;30.00;;;;;;5025976;28;20498;-68
2021/04/04 10:31:05;;;;;;;2.63;1.23;;;12.40;31.10;;;;;;5023913;28;20100;-66
2021/04/04 10:33:30;;;;;;;;;;;12.40;30.20;;;;;;5026259;28;20120;-67
2021/04/04 10:35:56;;;;;;;3.00;1.30;;;12.40;29.30;;;;;;5025674;28;19916;-67
2021/04/04 10:38:25;;;;;;;;;;;12.30;29.20;;;;;;5025912;28;20039;-67
2021/04/04 10:40:56;;;;;;;2.83;1.10;;;12.10;29.90;;;;;;5025803;28;19946;-66
2021/04/04 10:43:23;;;;;;;1.90;0.77;;;12.30;30.10;;;;;;5023127;28;20063;-67
2021/04/04 10:45:55;;;;;;;2.22;0.90;;;12.40;30.30;;;;;;5025845;28;20544;-67
2021/04/04 10:48:21;;;;;;;3.78;1.30;;;12.50;29.80;;;;;;5022933;28;20482;-68
2021/04/04 10:50:48;;;;;;;;;;;12.20;30.40;;;;;;5025343;28;20029;-68
2021/04/04 10:53:14;;;;;;;2.40;1.20;;;12.40;33.10;;;;;;5025270;28;19917;-67
2021/04/04 10:55:41;;;;;;;5.25;1.65;;;12.70;31.00;;;;;;5026077;28;20112;-67
2021/04/04 10:58:07;;;;;;;;;;;12.70;31.00;;;;;;5027004;28;20048;-67
2021/04/04 11:00:33;;;;;;;3.63;1.23;;;12.70;30.50;;;;;;5026437;28;20000;-67
2021/04/04 11:02:59;;;;;;;;;;;12.90;29.80;;;;;;5027087;28;20116;-67
2021/04/04 11:05:26;;;;;;;2.72;0.70;;;12.80;31.20;;;;;;5024647;28;19925;-67
2021/04/04 11:07:53;;;;;;;1.20;0.68;;;12.60;30.20;;;;;;5025422;28;20494;-69
2021/04/04 11:10:19;;;;;;;4.85;0.95;;;12.80;31.40;;;;;;5024869;28;20029;-67
2021/04/04 11:12:44;;;;;;;;;;;13.20;29.50;;;;;;5025839;28;20037;-66
2021/04/04 11:15:16;;;;;;;1.90;0.80;;;13.10;29.80;;;;;;5026519;28;19956;-67
2021/04/04 11:17:46;;;;;;;2.55;0.75;;;13.00;30.70;;;;;;5026248;28;20049;-68
2021/04/04 11:20:17;;;;;;;3.28;1.45;;;12.90;30.80;;;;;;5025891;28;20136;-67
2021/04/04 11:22:43;;;;;;;2.95;1.00;;;13.00;30.40;;;;;;5025206;28;20401;-67
2021/04/04 11:25:10;;;;;;;;;;;12.70;29.80;;;;;;5026471;28;20042;-68
2021/04/04 11:27:44;;;;;;;2.05;0.70;;;12.50;29.50;;;;;;5025056;28;19921;-68
2021/04/04 11:30:30;;;;;;;2.03;0.93;;;12.20;31.10;;;;;;5024645;28;20108;-67
2021/04/04 11:33:19;;;;;;;4.35;1.55;;;11.90;30.00;;;;;;5023320;28;20029;-67
2021/04/04 11:36:06;;;;;;;4.18;1.02;;;11.80;30.10;;;;;;5023837;28;20041;-68
2021/04/04 11:38:36;;;;;;;1.73;0.73;;;11.50;29.80;;;;;;5021855;28;20026;-68
2021/04/04 11:41:20;;;;;;;1.73;0.80;;;11.40;30.50;;;;;;5025222;28;20029;-69
2021/04/04 11:43:52;;;;;;;4.88;0.73;;;11.40;30.90;;;;;;5006122;28;20029;-67
2021/04/04 11:46:48;;;;;;;1.98;0.88;;;11.40;30.80;;;;;;5004067;28;20021;-68
2021/04/04 11:49:50;;;;;;;3.15;1.20;;;11.50;32.10;;;;;;5013628;28;20654;-68
2021/04/04 11:52:16;;;;;;;1.83;0.80;;;11.60;34.50;;;;;;5005127;28;20050;-69
2021/04/04 11:54:44;;;;;;;;;;;11.70;35.50;;;;;;5005945;28;20803;-67
2021/04/04 11:57:11;;;;;;;3.33;0.90;;;11.60;36.20;;;;;;5005525;28;19917;-68
2021/04/04 11:59:36;;;;;;;;;;;11.60;36.10;;;;;;5004062;28;20486;-68
2021/04/04 12:02:02;;;;;;;2.35;0.85;;;11.60;36.70;;;;;;5020142;28;19920;-67
2021/04/04 12:04:36;;;;;;;;;;;11.70;35.90;;;;;;5005021;28;20061;-68
2021/04/04 12:07:10;;;;;;;5.03;0.98;;;11.70;36.10;;;;;;5005406;28;19921;-67
2021/04/04 12:09:36;;;;;;;2.47;0.90;;;11.80;35.80;;;;;;5003746;28;20087;-68
2021/04/04 12:12:04;;;;;;;2.38;0.80;;;11.80;35.40;;;;;;5005482;28;20034;-68
2021/04/04 12:14:30;;;;;;;2.08;0.90;;;11.90;35.30;;;;;;5004043;28;20618;-67
2021/04/04 12:16:56;;;;;;;2.13;0.80;;;11.90;35.40;;;;;;5002124;28;20072;-69
2021/04/04 12:19:26;;;;;;;;;;;12.00;35.70;;;;;;5006033;28;20054;-67
2021/04/04 12:21:53;;;;;;;2.67;0.70;;;12.10;35.20;;;;;;5008781;28;19913;-67
2021/04/04 12:24:18;;;;;;;6.28;1.42;;;12.20;34.40;;;;;;5008507;28;20052;-68
2021/04/04 12:26:44;;;;;;;;;;;12.40;32.30;;;;;;5008894;28;20041;-67
2021/04/04 12:29:10;;;;;;;2.63;1.17;;;12.50;34.70;;;;;;5008557;28;19984;-68
2021/04/04 12:31:40;;;;;;;;;;;12.60;33.50;;;;;;5006983;28;20125;-66
2021/04/04 12:34:06;;;;;;;3.42;1.73;;;12.60;32.80;;;;;;5005304;28;19922;-67
2021/04/04 12:36:41;;;;;;;4.15;1.38;;;12.40;32.80;;;;;;5008372;28;20030;-67
2021/04/04 12:39:07;;;;;;;5.45;1.02;;;12.30;33.50;;;;;;5009162;28;20107;-69
2021/04/04 12:41:32;;;;;;;;;;;12.10;33.20;;;;;;5009595;28;20487;-68
2021/04/04 12:43:58;;;;;;;3.45;1.20;;;12.00;33.10;;;;;;5008982;28;20005;-68
2021/04/04 12:46:29;;;;;;;;;;;11.80;31.70;;;;;;5009782;28;20034;-68
2021/04/04 12:48:55;;;;;;;15.25;9.60;;;11.60;33.10;;;;;;5008910;28;20385;-68
2021/04/04 12:51:20;;;;;;;;;;;11.50;33.40;;;;;;5009693;28;20033;-68
2021/04/04 12:53:47;;;;;;;10.40;6.28;;;11.40;34.20;;;;;;5008712;28;19928;-68
2021/04/04 12:56:13;;;;;;;3.63;2.10;;;11.40;34.30;;;;;;5009339;28;20044;-68
2021/04/04 12:58:39;;;;;;;;;;;11.60;35.00;;;;;;5008185;28;20050;-67
2021/04/04 13:01:06;;;;;;;2.42;0.93;;;11.70;35.20;;;;;;5008263;28;20734;-67
2021/04/04 13:03:33;;;;;;;2.20;1.00;;;12.00;34.80;;;;;;5005608;28;20034;-67
2021/04/04 13:05:59;;;;;;;4.22;1.65;;;12.10;34.50;;;;;;5008352;28;20042;-67
2021/04/04 13:08:32;;;;;;;;;;;12.30;33.80;;;;;;5008923;28;20038;-66
2021/04/04 13:11:09;;;;;;;4.57;1.20;;;12.40;33.90;;;;;;5007900;28;19917;-67
2021/04/04 13:13:40;;;;;;;4.13;1.83;;;12.30;32.30;;;;;;5006336;28;20510;-66
2021/04/04 13:16:08;;;;;;;3.17;1.63;;;12.20;32.90;;;;;;5005317;28;20038;-67
2021/04/04 13:18:40;;;;;;;2.35;1.00;;;12.10;32.80;;;;;;5007417;28;20053;-67
2021/04/04 13:21:19;;;;;;;3.47;1.10;;;12.10;33.70;;;;;;5007034;28;20045;-66
2021/04/04 13:23:47;;;;;;;2.22;1.13;;;12.20;34.40;;;;;;5005477;28;20049;-67
2021/04/04 13:26:14;;;;;;;2.78;1.23;;;12.30;34.30;;;;;;5006837;28;20486;-67